createdAt,value
2018-12-31T00:04:14.359Z,4.27
2018-12-31T00:09:20.559Z,4.28
2018-12-31T00:14:26.735Z,4.25
2018-12-31T00:19:33.272Z,4.23
2018-12-31T00:24:39.455Z,4.22
2018-12-31T00:29:45.759Z,4.14
2018-12-31T00:34:52.038Z,4.12
2018-12-31T00:39:58.243Z,4.07
2018-12-31T00:45:04.692Z,4.06
2018-12-31T00:50:11.088Z,4.06
2018-12-31T00:55:17.436Z,4.07
2018-12-31T01:00:23.490Z,4.08
2018-12-31T01:05:29.562Z,4.04
2018-12-31T01:10:35.689Z,4.05
2018-12-31T01:15:41.808Z,4.07
2018-12-31T01:20:47.999Z,4.12
2018-12-31T01:25:54.054Z,4.22
2018-12-31T01:31:00.315Z,4.30
2018-12-31T01:36:06.472Z,4.62
2018-12-31T01:41:12.643Z,4.46
2018-12-31T01:46:19.006Z,4.63
2018-12-31T01:51:25.379Z,4.66
2018-12-31T01:56:31.495Z,4.58
2018-12-31T02:01:38.304Z,4.55
2018-12-31T02:06:44.507Z,4.49
2018-12-31T02:11:53.638Z,4.41
2018-12-31T02:16:59.819Z,4.34
2018-12-31T02:22:05.962Z,4.26
2018-12-31T02:27:12.054Z,4.19
2018-12-31T02:32:18.152Z,4.14
2018-12-31T02:37:24.282Z,4.16
2018-12-31T02:42:30.344Z,4.12
2018-12-31T02:47:36.656Z,4.15
2018-12-31T02:52:43.004Z,4.09
2018-12-31T02:57:49.252Z,4.13
2018-12-31T03:02:55.304Z,4.27
2018-12-31T03:08:01.539Z,4.28
2018-12-31T03:13:11.037Z,4.39
2018-12-31T03:18:17.267Z,4.44
2018-12-31T03:23:23.313Z,4.52
2018-12-31T03:28:29.481Z,4.60
2018-12-31T03:33:35.684Z,4.62
2018-12-31T03:38:41.851Z,4.55
2018-12-31T03:43:47.988Z,4.57
2018-12-31T03:48:54.259Z,4.56
2018-12-31T03:54:00.359Z,4.59
2018-12-31T03:59:06.819Z,4.53
2018-12-31T04:04:12.867Z,4.70
2018-12-31T04:09:18.900Z,4.71
2018-12-31T04:14:25.246Z,4.54
2018-12-31T04:19:31.411Z,4.60
2018-12-31T04:24:37.765Z,4.50
2018-12-31T04:29:44.148Z,4.56
2018-12-31T04:34:50.906Z,4.51
2018-12-31T04:39:57.235Z,4.43
2018-12-31T04:45:03.567Z,4.35
2018-12-31T04:50:09.869Z,4.32
2018-12-31T04:55:16.398Z,4.33
2018-12-31T05:00:22.489Z,4.31
2018-12-31T05:05:28.974Z,4.28
2018-12-31T05:10:35.212Z,4.28
2018-12-31T05:15:41.491Z,4.31
2018-12-31T05:20:47.624Z,4.30
2018-12-31T05:25:53.767Z,4.28
2018-12-31T05:31:00.146Z,4.26
2018-12-31T05:36:06.300Z,4.32
2018-12-31T05:41:12.366Z,4.39
2018-12-31T05:46:18.870Z,4.33
2018-12-31T05:51:25.390Z,4.30
2018-12-31T05:56:31.455Z,4.27
2018-12-31T06:01:38.267Z,4.23
2018-12-31T06:06:44.308Z,4.25
2018-12-31T06:11:50.579Z,4.21
2018-12-31T06:16:56.697Z,4.18
2018-12-31T06:22:03.209Z,4.14
2018-12-31T06:27:09.410Z,4.14
2018-12-31T06:32:15.363Z,4.13
2018-12-31T06:37:21.577Z,4.19
2018-12-31T06:42:27.756Z,4.16
2018-12-31T06:47:34.219Z,4.15
2018-12-31T06:52:40.512Z,4.18
2018-12-31T06:57:46.623Z,4.18
2018-12-31T07:02:52.719Z,4.18
2018-12-31T07:07:59.488Z,4.14
2018-12-31T07:13:06.237Z,4.15
2018-12-31T07:18:13.163Z,4.15
2018-12-31T07:23:19.392Z,4.19
2018-12-31T07:28:25.597Z,4.25
2018-12-31T07:33:32.742Z,4.27
2018-12-31T07:38:38.906Z,4.29
2018-12-31T07:43:45.211Z,4.31
2018-12-31T07:48:52.019Z,4.43
2018-12-31T07:53:58.271Z,4.39
2018-12-31T07:59:04.751Z,4.42
2018-12-31T08:04:10.873Z,4.42
2018-12-31T08:09:17.015Z,4.46
2018-12-31T08:14:23.236Z,4.59
2018-12-31T08:19:29.720Z,4.59
2018-12-31T08:24:36.391Z,4.55
2018-12-31T08:29:43.451Z,4.52
2018-12-31T08:34:49.794Z,4.59
2018-12-31T08:39:57.051Z,4.64
2018-12-31T08:45:04.038Z,4.85
2018-12-31T08:50:10.575Z,5.09
2018-12-31T08:55:17.146Z,5.23
2018-12-31T09:00:26.549Z,5.35
2018-12-31T09:05:33.094Z,5.42
2018-12-31T09:10:39.406Z,5.46
2018-12-31T09:15:45.855Z,5.44
2018-12-31T09:20:52.190Z,5.65
2018-12-31T09:25:58.499Z,5.74
2018-12-31T09:31:04.810Z,5.81
2018-12-31T09:36:11.243Z,6.03
2018-12-31T09:41:18.391Z,6.23
2018-12-31T09:46:24.890Z,6.31
2018-12-31T09:51:31.277Z,6.26
2018-12-31T09:56:37.880Z,6.26
2018-12-31T10:01:44.162Z,6.60
2018-12-31T10:06:52.332Z,6.51
2018-12-31T10:11:58.637Z,6.55
2018-12-31T10:17:04.977Z,6.59
2018-12-31T10:22:11.349Z,6.59
2018-12-31T10:27:17.632Z,6.55
2018-12-31T10:32:27.081Z,6.55
2018-12-31T10:37:33.245Z,6.61
2018-12-31T10:42:39.453Z,6.68
2018-12-31T10:47:46.759Z,6.93
2018-12-31T10:52:52.968Z,6.88
2018-12-31T10:57:59.418Z,6.97
2018-12-31T11:03:05.502Z,6.82
2018-12-31T11:08:11.905Z,6.82
2018-12-31T11:13:19.558Z,6.89
2018-12-31T11:18:25.956Z,6.95
2018-12-31T11:23:32.364Z,6.90
2018-12-31T11:28:38.658Z,6.86
2018-12-31T11:33:46.428Z,6.94
2018-12-31T11:38:53.012Z,6.94
2018-12-31T11:43:59.442Z,6.86
2018-12-31T11:49:05.840Z,6.86
2018-12-31T11:54:12.276Z,6.76
2018-12-31T11:59:19.799Z,6.76
2018-12-31T12:04:26.178Z,6.78
2018-12-31T12:09:32.510Z,6.81
2018-12-31T12:14:38.701Z,6.81
2018-12-31T12:19:47.165Z,6.82
2018-12-31T12:24:57.232Z,6.82
2018-12-31T12:30:09.832Z,6.67
2018-12-31T12:35:18.664Z,6.69
2018-12-31T12:40:25.020Z,6.75
2018-12-31T12:45:31.732Z,6.70
2018-12-31T12:50:38.338Z,6.96
2018-12-31T12:55:49.925Z,6.95
2018-12-31T13:00:56.851Z,6.98
2018-12-31T13:06:03.226Z,6.88
2018-12-31T13:11:11.290Z,6.97
2018-12-31T13:16:18.245Z,6.93
2018-12-31T13:21:27.461Z,6.95
2018-12-31T13:26:34.431Z,7.00
2018-12-31T13:31:43.146Z,7.01
2018-12-31T13:36:50.044Z,6.93
2018-12-31T13:41:57.239Z,6.99
2018-12-31T13:47:03.839Z,7.01
2018-12-31T13:52:11.574Z,7.13
2018-12-31T13:57:18.595Z,7.14
2018-12-31T14:02:25.706Z,7.06
2018-12-31T14:07:32.469Z,6.96
2018-12-31T14:12:45.046Z,6.91
2018-12-31T14:17:52.176Z,6.88
2018-12-31T14:22:58.831Z,6.86
2018-12-31T14:28:06.102Z,6.70
2018-12-31T14:33:16.533Z,6.70
2018-12-31T14:38:23.344Z,6.69
2018-12-31T14:43:29.949Z,6.67
2018-12-31T14:48:36.197Z,6.60
2018-12-31T14:53:44.996Z,6.50
2018-12-31T14:58:54.079Z,6.45
2018-12-31T15:04:00.660Z,6.45
2018-12-31T15:09:10.642Z,6.37
2018-12-31T15:14:18.299Z,6.33
2018-12-31T15:19:25.428Z,6.26
2018-12-31T15:24:33.553Z,6.15
2018-12-31T15:29:41.897Z,6.12
2018-12-31T15:34:48.282Z,6.07
2018-12-31T15:39:57.443Z,6.08
2018-12-31T15:45:03.012Z,6.03
2018-12-31T15:50:10.921Z,5.99
2018-12-31T15:55:22.881Z,6.01
2018-12-31T16:00:30.047Z,5.94
2018-12-31T16:05:37.152Z,5.88
2018-12-31T16:10:43.645Z,5.98
2018-12-31T16:15:55.450Z,5.91
2018-12-31T16:21:02.505Z,5.89
2018-12-31T16:26:09.406Z,5.83
2018-12-31T16:31:17.048Z,5.82
2018-12-31T16:36:24.328Z,5.82
2018-12-31T16:41:30.896Z,5.82
2018-12-31T16:46:38.490Z,5.91
2018-12-31T16:51:45.895Z,5.75
2018-12-31T16:56:53.312Z,5.67
2018-12-31T17:02:00.753Z,5.55
2018-12-31T17:07:08.382Z,5.33
2018-12-31T17:12:14.897Z,5.28
2018-12-31T17:17:23.892Z,5.13
2018-12-31T17:22:31.464Z,5.07
2018-12-31T17:27:38.323Z,5.00
2018-12-31T17:32:47.305Z,4.98
2018-12-31T17:37:54.074Z,4.91
2018-12-31T17:43:00.942Z,4.86
2018-12-31T17:48:11.496Z,4.82
2018-12-31T17:53:20.090Z,4.65
2018-12-31T17:58:27.345Z,4.59
2018-12-31T18:03:35.407Z,4.57
2018-12-31T18:08:42.053Z,4.75
2018-12-31T18:13:49.255Z,4.95
2018-12-31T18:18:55.955Z,4.92
2018-12-31T18:24:02.590Z,4.98
2018-12-31T18:29:09.230Z,5.06
2018-12-31T18:34:15.656Z,5.16
2018-12-31T18:39:22.334Z,5.25
2018-12-31T18:44:28.725Z,5.34
2018-12-31T18:49:35.043Z,5.25
2018-12-31T18:54:41.357Z,5.26
2018-12-31T18:59:47.630Z,5.33
2018-12-31T19:04:54.110Z,5.30
2018-12-31T19:10:00.881Z,5.38
2018-12-31T19:15:08.416Z,5.45
2018-12-31T19:20:15.053Z,5.56
2018-12-31T19:25:24.669Z,5.63
2018-12-31T19:30:30.930Z,5.66
2018-12-31T19:35:37.291Z,5.59
2018-12-31T19:40:43.553Z,5.61
2018-12-31T19:45:49.859Z,5.56
2018-12-31T19:50:56.437Z,5.48
2018-12-31T19:56:03.529Z,5.52
2018-12-31T20:01:10.030Z,5.54
2018-12-31T20:06:19.500Z,5.55
2018-12-31T20:11:25.765Z,5.51
2018-12-31T20:16:32.898Z,5.52
2018-12-31T20:21:39.383Z,5.54
2018-12-31T20:26:45.505Z,5.39
2018-12-31T20:31:52.487Z,5.44
2018-12-31T20:36:58.813Z,5.50
2018-12-31T20:42:05.248Z,5.48
2018-12-31T20:47:11.408Z,5.46
2018-12-31T20:52:17.965Z,5.42
2018-12-31T20:57:24.560Z,5.52
2018-12-31T21:02:30.990Z,5.48
2018-12-31T21:07:37.606Z,5.42
2018-12-31T21:12:44.601Z,5.34
2018-12-31T21:17:58.042Z,5.35
2018-12-31T21:23:06.570Z,5.36
2018-12-31T21:28:13.273Z,5.37
2018-12-31T21:33:19.518Z,5.48
2018-12-31T21:38:25.750Z,5.41
2018-12-31T21:43:31.949Z,5.38
2018-12-31T21:48:38.163Z,5.34
2018-12-31T21:53:44.477Z,5.32
2018-12-31T21:58:51.914Z,5.27
2018-12-31T22:03:58.305Z,5.34
2018-12-31T22:09:07.059Z,5.38
2018-12-31T22:14:13.498Z,5.38
2018-12-31T22:19:19.768Z,5.41
2018-12-31T22:24:26.117Z,5.42
2018-12-31T22:29:33.985Z,5.36
2018-12-31T22:34:42.597Z,5.33
2018-12-31T22:39:48.878Z,5.43
2018-12-31T22:44:55.613Z,5.33
2018-12-31T22:50:02.242Z,5.37
2018-12-31T22:55:09.354Z,5.33
2018-12-31T23:00:15.709Z,5.28
2018-12-31T23:05:21.834Z,5.34
2018-12-31T23:10:28.032Z,5.33
2018-12-31T23:15:36.378Z,5.26
2018-12-31T23:20:42.854Z,5.29
2018-12-31T23:25:49.299Z,5.17
2018-12-31T23:30:55.567Z,5.15
2018-12-31T23:36:02.094Z,5.14
2018-12-31T23:41:08.233Z,5.14
2018-12-31T23:46:14.887Z,5.14
2018-12-31T23:51:21.111Z,5.06
2018-12-31T23:56:27.905Z,5.01
